createdAt,value
2022-11-23T00:01:38.209Z,95351.44
2022-11-23T00:04:05.639Z,95351.03
2022-11-23T00:06:32.438Z,95354.13
2022-11-23T00:08:59.195Z,95359.38
2022-11-23T00:11:26.113Z,95347.66
2022-11-23T00:13:52.722Z,95348.47
2022-11-23T00:16:20.333Z,95346.03
2022-11-23T00:18:46.984Z,95350.50
2022-11-23T00:21:16.816Z,95341.97
2022-11-23T00:23:43.811Z,95344.44
2022-11-23T00:26:10.470Z,95342.81
2022-11-23T00:28:40.864Z,95335.00
2022-11-23T00:31:15.929Z,95339.97
2022-11-23T00:33:42.471Z,95334.44
2022-11-23T00:36:13.297Z,95328.38
2022-11-23T00:38:39.912Z,95337.16
2022-11-23T00:41:07.177Z,95333.91
2022-11-23T00:43:33.874Z,95334.72
2022-11-23T00:46:04.417Z,95339.03
2022-11-23T00:48:30.999Z,95339.03
2022-11-23T00:50:57.472Z,95345.09
2022-11-23T00:53:24.161Z,95337.53
2022-11-23T00:55:51.522Z,95346.16
2022-11-23T00:58:18.034Z,95342.13
2022-11-23T01:00:44.711Z,95341.31
2022-11-23T01:03:11.272Z,95333.66
2022-11-23T01:05:37.823Z,95342.28
2022-11-23T01:08:04.541Z,95337.16
2022-11-23T01:10:31.024Z,95337.81
2022-11-23T01:16:24.466Z,95333.09
2022-11-23T01:18:54.691Z,95324.72
2022-11-23T01:21:21.205Z,95323.13
2022-11-23T01:23:47.714Z,95328.22
2022-11-23T01:26:14.227Z,95333.34
2022-11-23T01:28:40.823Z,95326.47
2022-11-23T01:31:08.523Z,95325.56
2022-11-23T01:33:35.045Z,95318.00
2022-11-23T01:36:01.799Z,95325.56
2022-11-23T01:38:28.317Z,95314.47
2022-11-23T01:40:54.820Z,95319.50
2022-11-23T01:43:21.319Z,95317.72
2022-11-23T01:45:55.988Z,95317.72
2022-11-23T01:48:24.261Z,95320.28
2022-11-23T01:50:51.822Z,95320.28
2022-11-23T01:53:18.515Z,95326.38
2022-11-23T01:55:45.985Z,95327.16
2022-11-23T01:58:12.926Z,95319.59
2022-11-23T02:00:39.509Z,95313.69
2022-11-23T02:03:06.492Z,95317.03
2022-11-23T02:05:40.745Z,95306.81
2022-11-23T02:08:07.204Z,95306.00
2022-11-23T02:10:33.917Z,95308.44
2022-11-23T02:13:01.493Z,95310.19
2022-11-23T02:15:28.135Z,95302.53
2022-11-23T02:17:54.622Z,95308.44
2022-11-23T02:20:21.233Z,95308.16
2022-11-23T02:22:47.742Z,95303.97
2022-11-23T02:25:16.554Z,95309.25
2022-11-23T02:27:46.958Z,95302.63
2022-11-23T02:30:13.785Z,95306.28
2022-11-23T02:32:40.270Z,95305.47
2022-11-23T02:35:06.833Z,95305.63
2022-11-23T02:37:33.311Z,95309.91
2022-11-23T02:39:59.797Z,95304.13
2022-11-23T02:42:26.633Z,95305.88
2022-11-23T02:44:59.385Z,95303.31
2022-11-23T02:47:25.907Z,95306.69
2022-11-23T02:49:52.435Z,95306.84
2022-11-23T02:52:18.916Z,95305.06
2022-11-23T02:54:45.362Z,95306.84
2022-11-23T02:57:11.944Z,95306.97
2022-11-23T02:59:38.383Z,95310.47
2022-11-23T03:02:04.886Z,95310.47
2022-11-23T03:07:59.629Z,95311.25
2022-11-23T03:10:26.118Z,95317.22
2022-11-23T03:12:56.369Z,95316.28
2022-11-23T03:15:23.199Z,95307.78
2022-11-23T03:17:49.703Z,95313.81
2022-11-23T03:20:16.604Z,95308.19
2022-11-23T03:22:43.072Z,95310.34
2022-11-23T03:25:09.636Z,95306.00
2022-11-23T03:27:37.452Z,95303.19
2022-11-23T03:30:04.196Z,95301.97
2022-11-23T03:32:30.746Z,95308.56
2022-11-23T03:34:57.495Z,95298.63
2022-11-23T03:37:25.457Z,95301.31
2022-11-23T03:39:52.001Z,95300.38
2022-11-23T03:42:18.520Z,95298.50
2022-11-23T03:44:45.020Z,95295.78
2022-11-23T03:47:12.191Z,95292.16
2022-11-23T03:49:38.634Z,95298.75
2022-11-23T03:52:05.220Z,95298.50
2022-11-23T03:54:31.816Z,95290.69
2022-11-23T03:56:58.265Z,95295.66
2022-11-23T03:59:24.776Z,95287.84
2022-11-23T04:01:51.264Z,95300.38
2022-11-23T04:04:19.057Z,95293.50
2022-11-23T04:06:45.567Z,95291.75
2022-11-23T04:09:12.550Z,95287.31
2022-11-23T04:11:39.134Z,95286.22
2022-11-23T04:14:05.603Z,95280.16
2022-11-23T04:16:32.104Z,95279.06
2022-11-23T04:18:58.590Z,95286.50
2022-11-23T04:21:25.042Z,95283.78
2022-11-23T04:23:51.595Z,95279.38
2022-11-23T04:26:18.061Z,95282.72
2022-11-23T04:28:44.530Z,95289.47
2022-11-23T04:31:11.137Z,95281.94
2022-11-23T04:33:37.604Z,95292.97
2022-11-23T04:36:04.205Z,95297.13
2022-11-23T04:38:30.801Z,95295.53
2022-11-23T04:40:57.264Z,95299.84
2022-11-23T04:43:23.833Z,95294.03
2022-11-23T04:45:50.381Z,95291.63
2022-11-23T04:48:16.864Z,95290.81
2022-11-23T04:50:46.651Z,95292.41
2022-11-23T04:53:13.504Z,95297.41
2022-11-23T04:55:39.956Z,95294.84
2022-11-23T04:58:06.453Z,95295.94
2022-11-23T05:00:32.901Z,95304.56
2022-11-23T05:03:00.605Z,95309.38
2022-11-23T05:05:27.179Z,95299.28
2022-11-23T05:07:53.623Z,95308.88
2022-11-23T05:10:20.114Z,95302.25
2022-11-23T05:12:46.618Z,95301.59
2022-11-23T05:15:14.386Z,95298.88
2022-11-23T05:17:40.873Z,95302.25
2022-11-23T05:20:07.758Z,95306.41
2022-11-23T05:22:34.255Z,95304.00
2022-11-23T05:25:00.794Z,95305.63
2022-11-23T05:27:27.258Z,95312.22
2022-11-23T05:29:53.769Z,95308.97
2022-11-23T05:32:20.254Z,95317.47
2022-11-23T05:34:46.707Z,95323.00
2022-11-23T05:37:13.209Z,95332.44
2022-11-23T05:39:39.656Z,95333.50
2022-11-23T05:42:06.146Z,95338.50
2022-11-23T05:44:32.613Z,95336.88
2022-11-23T05:46:59.209Z,95340.50
2022-11-23T05:49:25.649Z,95330.16
2022-11-23T05:51:52.144Z,95330.56
2022-11-23T05:54:18.683Z,95311.28
2022-11-23T05:56:45.671Z,95304.81
2022-11-23T05:59:12.216Z,95307.78
2022-11-23T06:01:38.616Z,95307.09
2022-11-23T06:04:06.860Z,95318.28
2022-11-23T06:06:33.432Z,95313.44
2022-11-23T06:08:59.932Z,95309.13
2022-11-23T06:11:26.368Z,95308.19
2022-11-23T06:13:52.871Z,95311.44
2022-11-23T06:16:19.349Z,95302.00
2022-11-23T06:18:46.247Z,95290.53
2022-11-23T06:21:12.903Z,95284.47
2022-11-23T06:23:39.682Z,95281.25
2022-11-23T06:26:06.149Z,95282.03
2022-11-23T06:28:33.278Z,95281.25
2022-11-23T06:31:03.512Z,95280.84
2022-11-23T06:33:29.930Z,95288.66
2022-11-23T06:35:57.088Z,95297.00
2022-11-23T06:38:23.536Z,95298.59
2022-11-23T06:40:49.960Z,95293.75
2022-11-23T06:43:16.503Z,95303.03
2022-11-23T06:45:42.929Z,95313.03
2022-11-23T06:48:09.665Z,95317.19
2022-11-23T06:50:36.147Z,95329.03
2022-11-23T06:53:02.807Z,95331.34
2022-11-23T06:55:29.236Z,95335.22
2022-11-23T06:57:56.473Z,95344.66
2022-11-23T07:00:22.912Z,95337.13
2022-11-23T07:02:53.047Z,95350.34
2022-11-23T07:05:19.641Z,95357.31
2022-11-23T07:07:46.163Z,95355.84
2022-11-23T07:10:13.603Z,95364.50
2022-11-23T07:12:40.875Z,95366.09
2022-11-23T07:15:07.738Z,95355.31
2022-11-23T07:17:38.219Z,95360.97
2022-11-23T07:20:04.936Z,95356.50
2022-11-23T07:22:31.370Z,95358.69
2022-11-23T07:24:58.011Z,95358.28
2022-11-23T07:27:25.201Z,95350.28
2022-11-23T07:29:51.850Z,95355.56
2022-11-23T07:32:18.361Z,95351.66
2022-11-23T07:34:45.345Z,95334.38
2022-11-23T07:37:11.804Z,95339.66
2022-11-23T07:39:56.168Z,95331.69
2022-11-23T07:42:33.512Z,95330.34
2022-11-23T07:45:00.548Z,95321.56
2022-11-23T07:47:27.056Z,95324.41
2022-11-23T07:49:53.513Z,95319.41
2022-11-23T07:52:19.957Z,95318.19
2022-11-23T07:54:46.436Z,95320.34
2022-11-23T07:57:12.886Z,95325.84
2022-11-23T07:59:39.855Z,95322.59
2022-11-23T08:02:06.643Z,95324.38
2022-11-23T08:04:33.382Z,95322.50
2022-11-23T08:07:00.887Z,95196.78
2022-11-23T08:09:27.318Z,95321.25
2022-11-23T08:11:53.783Z,95323.53
2022-11-23T08:14:20.246Z,95327.56
2022-11-23T08:16:50.961Z,95326.34
2022-11-23T08:19:17.532Z,95325.25
2022-11-23T08:21:44.567Z,95322.41
2022-11-23T08:24:11.325Z,95321.03
2022-11-23T08:26:37.922Z,95331.00
2022-11-23T08:29:04.674Z,95335.88
2022-11-23T08:31:31.348Z,95323.84
2022-11-23T08:34:03.032Z,95320.63
2022-11-23T08:36:30.133Z,95324.00
2022-11-23T08:38:56.561Z,95328.44
2022-11-23T08:41:23.042Z,95327.63
2022-11-23T08:43:50.110Z,95317.53
2022-11-23T08:46:16.807Z,95326.31
2022-11-23T08:48:43.314Z,95334.66
2022-11-23T08:51:09.896Z,95331.81
2022-11-23T08:53:36.388Z,95321.94
2022-11-23T08:56:03.323Z,95318.81
2022-11-23T08:58:29.820Z,95318.38
2022-11-23T09:00:56.372Z,95325.34
2022-11-23T09:03:22.784Z,95322.91
2022-11-23T09:05:51.177Z,95327.31
2022-11-23T09:08:17.947Z,95319.72
2022-11-23T09:10:44.418Z,95322.22
2022-11-23T09:13:10.882Z,95320.09
2022-11-23T09:15:37.455Z,95322.44
2022-11-23T09:18:03.956Z,95322.09
2022-11-23T09:20:30.762Z,95319.59
2022-11-23T09:22:57.203Z,95315.78
2022-11-23T09:25:23.858Z,95306.31
2022-11-23T09:27:50.361Z,95307.78
2022-11-23T09:30:17.072Z,95301.88
2022-11-23T09:32:43.531Z,95301.88
2022-11-23T09:35:09.981Z,95311.72
2022-11-23T09:37:36.507Z,95307.25
2022-11-23T09:40:03.306Z,95306.94
2022-11-23T09:42:48.528Z,95301.81
2022-11-23T09:45:19.251Z,95298.44
2022-11-23T09:47:51.750Z,95294.91
2022-11-23T09:50:22.249Z,95294.09
2022-11-23T09:52:48.712Z,95298.28
2022-11-23T09:55:18.256Z,95295.69
2022-11-23T09:57:45.020Z,95295.56
2022-11-23T10:00:14.881Z,95291.69
2022-11-23T10:02:41.312Z,95290.44
2022-11-23T10:05:07.957Z,95281.16
2022-11-23T10:07:55.518Z,95283.72
2022-11-23T10:10:32.334Z,95284.69
2022-11-23T10:13:10.979Z,95279.09
2022-11-23T10:15:42.617Z,95287.09
2022-11-23T10:18:29.447Z,95276.31
2022-11-23T10:20:56.725Z,95265.91
2022-11-23T10:23:26.209Z,95269.28
2022-11-23T10:25:52.751Z,95271.38
2022-11-23T10:28:20.149Z,95273.94
2022-11-23T10:30:48.110Z,95277.31
2022-11-23T10:33:23.499Z,95275.22
2022-11-23T10:35:49.978Z,95269.88
2022-11-23T10:38:19.409Z,95271.34
2022-11-23T10:41:06.325Z,95274.19
2022-11-23T10:43:38.773Z,95270.16
2022-11-23T10:46:23.946Z,95262.47
2022-11-23T10:48:51.618Z,95261.31
2022-11-23T10:51:23.225Z,95265.63
2022-11-23T10:53:53.666Z,95270.25
2022-11-23T10:56:20.092Z,95272.13
2022-11-23T10:58:46.634Z,95281.06
2022-11-23T11:01:14.281Z,95267.88
2022-11-23T11:03:40.792Z,95257.22
2022-11-23T11:06:08.948Z,95261.56
2022-11-23T11:08:55.679Z,95259.16
2022-11-23T11:11:23.840Z,95266.13
2022-11-23T11:13:50.253Z,95267.66
2022-11-23T11:16:21.896Z,95262.97
2022-11-23T11:18:48.348Z,95256.75
2022-11-23T11:21:33.520Z,95255.78
2022-11-23T11:24:07.101Z,95257.84
2022-11-23T11:26:33.951Z,95264.00
2022-11-23T11:29:01.471Z,95268.69
2022-11-23T11:31:46.631Z,95261.56
2022-11-23T11:34:16.128Z,95273.88
2022-11-23T11:36:48.771Z,95263.09
2022-11-23T11:39:19.229Z,95279.72
2022-11-23T11:41:46.136Z,95278.69
2022-11-23T11:44:22.954Z,95277.19
2022-11-23T11:46:51.658Z,95276.41
2022-11-23T11:49:23.099Z,95268.63
2022-11-23T11:52:06.623Z,95261.34
2022-11-23T11:54:33.513Z,95257.34
2022-11-23T11:57:02.092Z,95259.91
2022-11-23T11:59:29.263Z,95265.31
2022-11-23T12:02:14.007Z,95262.22
2022-11-23T12:04:41.864Z,95274.44
2022-11-23T12:07:10.266Z,95279.03
2022-11-23T12:09:38.105Z,95277.50
2022-11-23T12:12:04.965Z,95276.56
2022-11-23T12:14:31.863Z,95279.81
2022-11-23T12:17:30.851Z,95281.31
2022-11-23T12:19:51.418Z,95280.94
2022-11-23T12:22:18.315Z,95286.47
2022-11-23T12:25:23.694Z,95286.47
2022-11-23T12:27:59.519Z,95295.66
2022-11-23T12:30:32.184Z,95294.69
2022-11-23T12:33:04.014Z,95295.25
2022-11-23T12:35:33.595Z,95303.72
2022-11-23T12:38:06.063Z,95299.56
2022-11-23T12:40:38.733Z,95298.19
2022-11-23T12:43:13.446Z,95297.28
2022-11-23T12:45:45.658Z,95307.91
2022-11-23T12:48:34.038Z,95306.97
2022-11-23T12:51:00.614Z,95307.78
2022-11-23T12:53:27.080Z,95303.06
2022-11-23T12:56:11.763Z,95314.50
2022-11-23T12:58:38.208Z,95320.31
2022-11-23T13:01:34.537Z,95319.09
2022-11-23T13:04:10.278Z,95324.34
2022-11-23T13:06:36.731Z,95313.44
2022-11-23T13:09:03.207Z,95319.50
2022-11-23T13:11:39.156Z,95319.09
2022-11-23T13:14:14.896Z,95324.88
2022-11-23T13:17:00.205Z,95319.50
2022-11-23T13:19:33.674Z,95324.34
2022-11-23T13:22:00.174Z,95322.47
2022-11-23T13:24:27.474Z,95316.94
2022-11-23T13:27:12.775Z,95327.31
2022-11-23T13:29:51.418Z,95321.66
2022-11-23T13:32:36.802Z,95322.34
2022-11-23T13:35:03.236Z,95320.56
2022-11-23T13:37:29.643Z,95319.50
2022-11-23T13:40:00.268Z,95319.50
2022-11-23T13:42:26.910Z,95332.56
2022-11-23T13:45:29.091Z,95325.03
2022-11-23T13:48:04.804Z,95322.31
2022-11-23T13:50:35.872Z,95325.81
2022-11-23T13:56:31.831Z,95336.34
2022-11-23T13:59:18.506Z,95325.41
2022-11-23T14:02:03.827Z,95326.34
2022-11-23T14:04:31.092Z,95327.44
2022-11-23T14:06:59.134Z,95334.56
2022-11-23T14:09:31.180Z,95331.47
2022-11-23T14:12:03.074Z,95335.09
2022-11-23T14:14:49.794Z,95336.19
2022-11-23T14:17:16.213Z,95336.59
2022-11-23T14:19:48.609Z,95345.75
2022-11-23T14:22:33.769Z,95353.38
2022-11-23T14:25:03.096Z,95346.75
2022-11-23T14:28:08.144Z,95349.84
2022-11-23T14:30:34.519Z,95348.38
2022-11-23T14:33:04.051Z,95347.97
2022-11-23T14:35:33.199Z,95354.03
2022-11-23T14:38:18.035Z,95357.81
2022-11-23T14:41:03.310Z,95366.59
2022-11-23T14:43:29.774Z,95372.66
2022-11-23T14:46:03.345Z,95369.53
2022-11-23T14:48:33.859Z,95375.72
2022-11-23T14:51:04.298Z,95376.94
2022-11-23T14:53:35.281Z,95376.66
2022-11-23T14:56:01.849Z,95382.28
2022-11-23T14:58:29.039Z,95386.97
2022-11-23T15:00:58.719Z,95389.94
2022-11-23T15:06:14.621Z,95398.53
2022-11-23T15:08:52.582Z,95391.25
2022-11-23T15:11:21.252Z,95387.03
2022-11-23T15:13:48.523Z,95391.34
2022-11-23T15:16:15.947Z,95390.97
2022-11-23T15:18:42.674Z,95393.34
2022-11-23T15:21:12.328Z,95393.84
2022-11-23T15:23:40.238Z,95394.34
2022-11-23T15:26:12.301Z,95392.88
2022-11-23T15:28:38.900Z,95393.41
2022-11-23T15:31:24.294Z,95386.97
2022-11-23T15:33:51.476Z,95379.16
2022-11-23T15:36:18.867Z,95378.88
2022-11-23T15:38:45.336Z,95377.28
2022-11-23T15:41:11.750Z,95377.03
2022-11-23T15:43:38.160Z,95378.78
2022-11-23T15:46:05.793Z,95372.97
2022-11-23T15:48:33.079Z,95379.69
2022-11-23T15:51:00.186Z,95377.97
2022-11-23T15:53:27.955Z,95383.50
2022-11-23T15:55:54.439Z,95384.88
2022-11-23T15:58:21.027Z,95374.94
2022-11-23T16:00:51.862Z,95378.19
2022-11-23T16:03:24.416Z,95374.69
2022-11-23T16:06:09.562Z,95384.63
2022-11-23T16:08:36.049Z,95392.72
2022-11-23T16:11:02.482Z,95392.22
2022-11-23T16:13:35.994Z,95396.28
2022-11-23T16:16:02.482Z,95393.44
2022-11-23T16:18:31.584Z,95389.41
2022-11-23T16:21:01.733Z,95384.16
2022-11-23T16:23:29.840Z,95384.81
2022-11-23T16:26:03.084Z,95395.44
2022-11-23T16:28:30.085Z,95395.56
2022-11-23T16:30:57.818Z,95405.09
2022-11-23T16:33:24.516Z,95403.47
2022-11-23T16:35:51.059Z,95402.53
2022-11-23T16:38:19.899Z,95396.47
2022-11-23T16:40:48.204Z,95401.06
2022-11-23T16:43:14.912Z,95400.25
2022-11-23T16:45:44.845Z,95394.03
2022-11-23T16:48:26.627Z,95392.66
2022-11-23T16:50:53.339Z,95391.16
2022-11-23T16:53:19.867Z,95401.38
2022-11-23T16:55:46.527Z,95403.13
2022-11-23T16:58:14.332Z,95397.22
2022-11-23T17:00:40.914Z,95395.47
2022-11-23T17:03:11.187Z,95399.63
2022-11-23T17:05:37.635Z,95395.34
2022-11-23T17:08:04.221Z,95400.56
2022-11-23T17:10:30.735Z,95404.34
2022-11-23T17:12:57.205Z,95402.97
2022-11-23T17:15:23.741Z,95409.13
2022-11-23T17:17:50.349Z,95416.69
2022-11-23T17:20:16.968Z,95416.69
2022-11-23T17:22:43.535Z,95421.53
2022-11-23T17:25:14.750Z,95424.78
2022-11-23T17:27:42.088Z,95407.28
2022-11-23T17:30:13.317Z,95416.59
2022-11-23T17:32:39.789Z,95413.78
2022-11-23T17:35:06.384Z,95416.19
2022-11-23T17:37:32.825Z,95419.47
2022-11-23T17:39:59.238Z,95410.84
2022-11-23T17:42:25.697Z,95416.63
2022-11-23T17:44:52.157Z,95417.44
2022-11-23T17:47:25.811Z,95412.22
2022-11-23T17:49:52.357Z,95411.41
2022-11-23T17:52:18.822Z,95405.47
2022-11-23T17:54:45.326Z,95403.84
2022-11-23T17:57:15.285Z,95414.88
2022-11-23T17:59:41.859Z,95412.31
2022-11-23T18:02:08.524Z,95412.59
2022-11-23T18:04:35.049Z,95411.94
2022-11-23T18:10:35.631Z,95408.00
2022-11-23T18:13:02.742Z,95402.88
2022-11-23T18:15:30.520Z,95401.94
2022-11-23T18:18:01.613Z,95401.69
2022-11-23T18:20:30.916Z,95394.03
2022-11-23T18:22:57.396Z,95401.81
2022-11-23T18:25:23.967Z,95406.13
2022-11-23T18:27:50.908Z,95313.75
2022-11-23T18:30:17.659Z,95404.25
2022-11-23T18:32:44.118Z,95396.47
2022-11-23T18:35:10.715Z,95402.38
2022-11-23T18:37:37.207Z,95395.50
2022-11-23T18:40:03.811Z,95386.22
2022-11-23T18:42:30.319Z,95392.28
2022-11-23T18:44:56.841Z,95394.03
2022-11-23T18:47:24.126Z,95395.09
2022-11-23T18:49:50.993Z,95390.25
2022-11-23T18:52:17.454Z,95396.16
2022-11-23T18:54:44.136Z,95397.06
2022-11-23T18:57:11.997Z,95403.81
2022-11-23T19:02:24.906Z,95400.19
2022-11-23T19:04:51.420Z,95403.19
2022-11-23T19:07:22.089Z,95405.06
2022-11-23T19:09:51.718Z,95402.63
2022-11-23T19:12:18.172Z,95401.56
2022-11-23T19:14:49.611Z,95404.78
2022-11-23T19:17:16.440Z,95400.34
2022-11-23T19:19:42.865Z,95409.41
2022-11-23T19:22:09.409Z,95410.75
2022-11-23T19:24:35.918Z,95405.38
2022-11-23T19:27:02.400Z,95405.28
2022-11-23T19:29:28.881Z,95411.31
2022-11-23T19:31:55.414Z,95416.41
2022-11-23T19:34:22.049Z,95418.06
2022-11-23T19:36:48.505Z,95411.88
2022-11-23T19:39:15.005Z,95415.09
2022-11-23T19:41:41.488Z,95417.53
2022-11-23T19:44:08.899Z,95419.03
2022-11-23T19:46:35.399Z,95424.81
2022-11-23T19:49:41.117Z,95427.13
2022-11-23T19:52:07.575Z,95434.66
2022-11-23T19:54:34.017Z,95438.00
2022-11-23T19:57:00.533Z,95432.00
2022-11-23T19:59:27.745Z,95432.09
2022-11-23T20:01:54.222Z,95431.16
2022-11-23T20:04:20.990Z,95436.41
2022-11-23T20:06:47.574Z,95432.38
2022-11-23T20:09:19.216Z,95435.31
2022-11-23T20:11:50.308Z,95438.94
2022-11-23T20:14:17.423Z,95439.84
2022-11-23T20:16:43.937Z,95439.19
2022-11-23T20:19:10.438Z,95439.19
2022-11-23T20:21:36.996Z,95436.50
2022-11-23T20:24:05.961Z,95434.63
2022-11-23T20:26:32.835Z,95444.59
2022-11-23T20:28:59.353Z,95446.91
2022-11-23T20:31:26.408Z,95450.13
2022-11-23T20:33:53.878Z,95446.50
2022-11-23T20:36:21.225Z,95443.03
2022-11-23T20:38:47.683Z,95448.81
2022-11-23T20:41:17.282Z,95443.84
2022-11-23T20:43:43.931Z,95450.69
2022-11-23T20:46:10.451Z,95453.91
2022-11-23T20:48:37.118Z,95450.41
2022-11-23T20:51:10.108Z,95447.72
2022-11-23T20:53:48.331Z,95457.56
2022-11-23T20:56:15.047Z,95456.63
2022-11-23T20:58:41.907Z,95454.78
2022-11-23T21:01:10.772Z,95453.16
2022-11-23T21:03:37.869Z,95465.81
2022-11-23T21:06:09.425Z,95475.09
2022-11-23T21:08:36.108Z,95469.03
2022-11-23T21:11:30.041Z,95472.41
2022-11-23T21:14:15.663Z,95471.75
2022-11-23T21:16:53.032Z,95477.91
2022-11-23T21:19:20.740Z,95481.69
2022-11-23T21:21:47.153Z,95480.88
2022-11-23T21:24:13.595Z,95483.66
2022-11-23T21:26:40.257Z,95483.94
2022-11-23T21:29:11.330Z,95481.38
2022-11-23T21:31:38.569Z,95476.38
2022-11-23T21:34:05.296Z,95484.03
2022-11-23T21:36:37.668Z,95492.41
2022-11-23T21:39:04.804Z,95491.34
2022-11-23T21:41:31.276Z,95489.44
2022-11-23T21:43:57.774Z,95484.34
2022-11-23T21:46:24.711Z,95486.22
2022-11-23T21:48:51.980Z,95493.91
2022-11-23T21:51:18.454Z,95503.31
2022-11-23T21:53:44.937Z,95501.56
2022-11-23T21:56:15.180Z,95499.81
2022-11-23T21:58:41.841Z,95495.28
2022-11-23T22:01:09.401Z,95497.81
2022-11-23T22:03:36.689Z,95495.13
2022-11-23T22:06:03.226Z,95493.75
2022-11-23T22:08:30.033Z,95492.94
2022-11-23T22:10:56.638Z,95489.59
2022-11-23T22:13:28.805Z,95506.69
2022-11-23T22:15:58.235Z,95511.81
2022-11-23T22:18:24.811Z,95512.75
2022-11-23T22:20:52.163Z,95508.56
2022-11-23T22:23:18.644Z,95501.84
2022-11-23T22:25:48.176Z,95505.22
2022-11-23T22:28:14.838Z,95511.94
2022-11-23T22:30:41.533Z,95511.94
2022-11-23T22:33:08.048Z,95506.81
2022-11-23T22:35:34.734Z,95522.84
2022-11-23T22:38:01.293Z,95515.31
2022-11-23T22:40:32.786Z,95513.97
2022-11-23T22:42:59.824Z,95517.84
2022-11-23T22:45:26.625Z,95518.38
2022-11-23T22:47:53.227Z,95516.31
2022-11-23T22:50:19.758Z,95518.06
2022-11-23T22:52:46.653Z,95520.06
2022-11-23T22:55:13.214Z,95520.81
2022-11-23T22:57:39.663Z,95521.31
2022-11-23T23:00:10.899Z,95529.09
2022-11-23T23:02:37.549Z,95528.41
2022-11-23T23:05:04.216Z,95530.91
2022-11-23T23:07:31.556Z,95531.84
2022-11-23T23:09:58.059Z,95532.66
2022-11-23T23:12:24.514Z,95538.69
2022-11-23T23:14:51.005Z,95539.06
2022-11-23T23:17:17.722Z,95546.06
2022-11-23T23:19:44.189Z,95541.88
2022-11-23T23:22:10.672Z,95538.63
2022-11-23T23:24:37.208Z,95539.81
2022-11-23T23:27:03.717Z,95527.03
2022-11-23T23:29:30.999Z,95542.13
2022-11-23T23:31:57.746Z,95540.06
2022-11-23T23:34:24.218Z,95541.94
2022-11-23T23:36:50.934Z,95550.41
2022-11-23T23:39:17.447Z,95550.97
2022-11-23T23:41:43.907Z,95554.44
2022-11-23T23:44:10.494Z,95553.91
2022-11-23T23:46:37.039Z,95561.56
2022-11-23T23:49:03.491Z,95551.34
2022-11-23T23:51:30.201Z,95548.06
2022-11-23T23:53:57.152Z,95551.56
2022-11-23T23:56:24.431Z,95557.38
2022-11-23T23:58:51.032Z,95557.38
